createdAt,value
2023-03-03T00:01:33.436Z,99621.94
2023-03-03T00:04:02.315Z,99627.88
2023-03-03T00:06:31.091Z,99632.97
2023-03-03T00:08:59.946Z,99640.72
2023-03-03T00:11:29.111Z,99641.69
2023-03-03T00:13:58.620Z,99636.59
2023-03-03T00:16:33.131Z,99633.34
2023-03-03T00:19:02.372Z,99646.09
2023-03-03T00:21:34.008Z,99641.09
2023-03-03T00:24:20.533Z,99646.34
2023-03-03T00:26:51.024Z,99643.09
2023-03-03T00:29:35.904Z,99647.44
2023-03-03T00:32:26.934Z,99658.53
2023-03-03T00:34:58.132Z,99664.53
2023-03-03T00:37:35.967Z,99664.69
2023-03-03T00:40:25.338Z,99655.50
2023-03-03T00:42:57.027Z,99663.31
2023-03-03T00:45:33.669Z,99656.72
2023-03-03T00:48:23.576Z,99648.41
2023-03-03T00:50:53.601Z,99654.34
2023-03-03T00:53:24.274Z,99656.13
2023-03-03T00:55:54.494Z,99667.97
2023-03-03T00:58:25.988Z,99665.50
2023-03-03T01:00:58.950Z,99672.28
2023-03-03T01:03:39.185Z,99670.63
2023-03-03T01:06:08.621Z,99669.88
2023-03-03T01:08:37.484Z,99661.50
2023-03-03T01:11:11.112Z,99674.25
2023-03-03T01:13:43.363Z,99668.41
2023-03-03T01:16:12.293Z,99666.78
2023-03-03T01:18:42.830Z,99674.38
2023-03-03T01:21:12.171Z,99664.28
2023-03-03T01:23:41.097Z,99667.78
2023-03-03T01:26:10.717Z,99668.69
2023-03-03T01:28:40.777Z,99665.34
2023-03-03T01:31:09.895Z,99672.22
2023-03-03T01:33:38.962Z,99666.38
2023-03-03T01:36:09.661Z,99671.44
2023-03-03T01:38:39.676Z,99668.09
2023-03-03T01:41:08.367Z,99664.78
2023-03-03T01:43:44.899Z,99658.09
2023-03-03T01:46:50.308Z,99661.56
2023-03-03T01:49:23.475Z,99661.63
2023-03-03T01:51:56.949Z,99661.63
2023-03-03T01:54:31.165Z,99660.78
2023-03-03T01:57:04.941Z,99657.38
2023-03-03T01:59:37.312Z,99653.25
2023-03-03T02:02:06.632Z,99654.13
2023-03-03T02:04:36.821Z,99650.78
2023-03-03T02:07:11.201Z,99654.19
2023-03-03T02:09:52.918Z,99642.41
2023-03-03T02:12:27.641Z,99649.25
2023-03-03T02:14:56.259Z,99647.59
2023-03-03T02:17:25.110Z,99646.78
2023-03-03T02:20:04.781Z,99651.00
2023-03-03T02:22:44.721Z,99647.72
2023-03-03T02:25:23.519Z,99652.94
2023-03-03T02:27:56.493Z,99659.75
2023-03-03T02:30:26.928Z,99655.63
2023-03-03T02:32:55.599Z,99659.03
2023-03-03T02:35:32.295Z,99651.50
2023-03-03T02:38:20.759Z,99652.44
2023-03-03T02:41:17.005Z,99659.22
2023-03-03T02:43:54.883Z,99657.63
2023-03-03T02:46:23.727Z,99655.16
2023-03-03T02:48:52.411Z,99656.03
2023-03-03T02:51:21.359Z,99651.84
2023-03-03T02:53:49.973Z,99650.22
2023-03-03T02:56:19.369Z,99650.31
2023-03-03T02:58:49.440Z,99664.59
2023-03-03T03:01:19.518Z,99665.44
2023-03-03T03:03:48.632Z,99665.50
2023-03-03T03:06:21.664Z,99668.97
2023-03-03T03:08:50.386Z,99668.13
2023-03-03T03:11:19.089Z,99658.06
2023-03-03T03:13:49.067Z,99654.78
2023-03-03T03:16:18.239Z,99656.53
2023-03-03T03:18:46.939Z,99654.06
2023-03-03T03:21:17.333Z,99654.94
2023-03-03T03:23:46.488Z,99656.59
2023-03-03T03:26:15.653Z,99660.00
2023-03-03T03:28:45.466Z,99663.41
2023-03-03T03:31:16.408Z,99662.59
2023-03-03T03:33:45.593Z,99659.25
2023-03-03T03:36:15.228Z,99657.66
2023-03-03T03:38:44.388Z,99657.75
2023-03-03T03:41:14.589Z,99657.88
2023-03-03T03:43:43.379Z,99655.47
2023-03-03T03:46:12.154Z,99661.47
2023-03-03T03:48:42.320Z,99662.41
2023-03-03T03:51:13.911Z,99661.72
2023-03-03T03:53:43.680Z,99658.41
2023-03-03T03:56:12.427Z,99665.19
2023-03-03T03:58:43.007Z,99665.13
2023-03-03T04:01:15.298Z,99666.72
2023-03-03T04:03:50.221Z,99664.19
2023-03-03T04:06:22.564Z,99657.41
2023-03-03T04:08:52.005Z,99655.69
2023-03-03T04:11:23.470Z,99657.41
2023-03-03T04:13:52.174Z,99665.06
2023-03-03T04:16:21.192Z,99674.38
2023-03-03T04:18:51.285Z,99672.66
2023-03-03T04:21:20.431Z,99669.31
2023-03-03T04:23:49.217Z,99665.94
2023-03-03T04:26:19.216Z,99670.13
2023-03-03T04:28:49.176Z,99665.94
2023-03-03T04:31:18.033Z,99666.00
2023-03-03T04:33:46.800Z,99676.13
2023-03-03T04:36:16.895Z,99666.81
2023-03-03T04:38:45.667Z,99674.41
2023-03-03T04:41:14.607Z,99671.13
2023-03-03T04:43:43.735Z,99677.06
2023-03-03T04:46:14.630Z,99679.66
2023-03-03T04:48:43.477Z,99675.53
2023-03-03T04:51:13.100Z,99682.34
2023-03-03T04:53:43.262Z,99669.72
2023-03-03T04:56:12.275Z,99675.69
2023-03-03T04:58:41.544Z,99672.31
2023-03-03T05:01:14.711Z,99679.97
2023-03-03T05:03:44.948Z,99682.44
2023-03-03T05:06:14.364Z,99691.63
2023-03-03T05:08:44.460Z,99687.38
2023-03-03T05:11:14.086Z,99696.66
2023-03-03T05:13:42.904Z,99699.19
2023-03-03T05:16:11.585Z,99700.03
2023-03-03T05:18:40.275Z,99702.50
2023-03-03T05:21:09.041Z,99710.84
2023-03-03T05:23:37.707Z,99702.38
2023-03-03T05:26:08.059Z,99705.78
2023-03-03T05:28:36.667Z,99705.78
2023-03-03T05:31:05.647Z,99698.19
2023-03-03T05:33:34.379Z,99707.44
2023-03-03T05:36:03.018Z,99714.22
2023-03-03T05:38:31.653Z,99709.97
2023-03-03T05:41:00.217Z,99713.28
2023-03-03T05:43:30.458Z,99714.16
2023-03-03T05:46:01.019Z,99712.50
2023-03-03T05:48:29.854Z,99708.31
2023-03-03T05:51:00.549Z,99705.03
2023-03-03T05:53:29.989Z,99717.69
2023-03-03T05:55:58.574Z,99707.56
2023-03-03T05:58:27.510Z,99717.69
2023-03-03T06:00:57.598Z,99702.50
2023-03-03T06:03:26.346Z,99710.97
2023-03-03T06:05:55.084Z,99714.38
2023-03-03T06:08:23.686Z,99717.81
2023-03-03T06:10:52.324Z,99715.28
2023-03-03T06:13:22.244Z,99724.56
2023-03-03T06:15:50.931Z,99722.00
2023-03-03T06:18:20.974Z,99725.41
2023-03-03T06:20:53.890Z,99730.53
2023-03-03T06:23:23.174Z,99727.19
2023-03-03T06:25:51.870Z,99727.19
2023-03-03T06:28:20.986Z,99726.38
2023-03-03T06:30:49.717Z,99734.78
2023-03-03T06:33:18.355Z,99735.59
2023-03-03T06:35:51.670Z,99733.97
2023-03-03T06:38:20.746Z,99750.03
2023-03-03T06:40:49.664Z,99760.16
2023-03-03T06:43:18.311Z,99766.97
2023-03-03T06:45:47.670Z,99770.38
2023-03-03T06:48:16.309Z,99771.34
2023-03-03T06:50:45.456Z,99768.94
2023-03-03T06:53:18.121Z,99764.75
2023-03-03T06:55:47.534Z,99772.34
2023-03-03T06:58:18.833Z,99784.97
2023-03-03T07:00:54.982Z,99787.44
2023-03-03T07:03:25.634Z,99776.47
2023-03-03T07:05:54.255Z,99778.94
2023-03-03T07:08:26.013Z,99779.78
2023-03-03T07:10:55.402Z,99786.53
2023-03-03T07:13:26.820Z,99789.81
2023-03-03T07:15:57.154Z,99784.69
2023-03-03T07:18:39.150Z,99788.00
2023-03-03T07:21:32.416Z,99797.25
2023-03-03T07:24:18.671Z,99794.66
2023-03-03T07:26:47.475Z,99792.84
2023-03-03T07:29:25.009Z,99798.69
2023-03-03T07:31:55.493Z,99800.22
2023-03-03T07:34:26.546Z,99805.91
2023-03-03T07:36:57.314Z,99807.44
2023-03-03T07:39:46.722Z,99803.00
2023-03-03T07:42:23.775Z,99804.53
2023-03-03T07:45:04.393Z,99809.41
2023-03-03T07:47:38.203Z,99815.09
2023-03-03T07:50:17.181Z,99820.00
2023-03-03T07:52:56.943Z,99824.84
2023-03-03T07:55:35.685Z,99840.66
2023-03-03T07:58:23.547Z,99833.66
2023-03-03T08:01:35.490Z,99838.53
2023-03-03T08:04:08.266Z,99845.91
2023-03-03T08:06:48.389Z,99848.28
2023-03-03T08:09:38.949Z,99847.28
2023-03-03T08:12:42.856Z,99845.34
2023-03-03T08:15:32.807Z,99846.88
2023-03-03T08:18:02.811Z,99851.00
2023-03-03T08:20:46.662Z,99851.66
2023-03-03T08:23:16.868Z,99848.94
2023-03-03T08:25:46.200Z,99848.78
2023-03-03T08:28:16.986Z,99843.53
2023-03-03T08:30:46.393Z,99845.06
2023-03-03T08:33:16.440Z,99844.75
2023-03-03T08:35:45.791Z,99847.03
2023-03-03T08:38:16.864Z,99850.22
2023-03-03T08:40:45.782Z,99844.16
2023-03-03T08:43:17.468Z,99848.16
2023-03-03T08:45:48.452Z,99846.25
2023-03-03T08:48:17.733Z,99857.88
2023-03-03T08:50:48.167Z,99853.50
2023-03-03T08:53:17.746Z,99857.56
2023-03-03T08:55:47.386Z,99851.53
2023-03-03T08:58:18.629Z,99865.88
2023-03-03T09:00:50.221Z,99864.97
2023-03-03T09:03:19.786Z,99853.91
2023-03-03T09:05:48.735Z,99858.91
2023-03-03T09:08:17.556Z,99868.09
2023-03-03T09:10:46.204Z,99862.03
2023-03-03T09:13:20.054Z,99862.00
2023-03-03T09:15:50.573Z,99861.16
2023-03-03T09:18:22.530Z,99866.25
2023-03-03T09:20:52.924Z,99869.56
2023-03-03T09:23:35.930Z,99872.91
2023-03-03T09:26:28.217Z,99870.31
2023-03-03T09:29:20.121Z,99867.75
2023-03-03T09:31:52.857Z,99866.81
2023-03-03T09:34:25.074Z,99867.53
2023-03-03T09:36:55.397Z,99864.78
2023-03-03T09:39:26.433Z,99866.31
2023-03-03T09:42:37.017Z,99874.63
2023-03-03T09:45:53.954Z,99865.19
2023-03-03T09:48:54.371Z,99875.94
2023-03-03T09:52:00.906Z,99879.94
2023-03-03T09:54:52.545Z,99880.50
2023-03-03T09:57:32.795Z,99883.63
2023-03-03T10:00:24.298Z,99883.31
2023-03-03T10:03:16.469Z,99885.63
2023-03-03T10:05:54.636Z,99885.53
2023-03-03T10:08:38.451Z,99877.63
2023-03-03T10:11:20.055Z,99890.94
2023-03-03T10:14:25.530Z,99885.72
2023-03-03T10:17:15.646Z,99882.16
2023-03-03T10:19:55.857Z,99877.69
2023-03-03T10:22:35.979Z,99877.53
2023-03-03T10:25:17.667Z,99877.31
2023-03-03T10:28:20.008Z,99873.72
2023-03-03T10:31:10.666Z,99880.31
2023-03-03T10:33:51.227Z,99881.91
2023-03-03T10:36:48.184Z,99886.91
2023-03-03T10:39:34.691Z,99887.69
2023-03-03T10:42:48.319Z,99889.25
2023-03-03T10:45:45.225Z,99881.56
2023-03-03T10:48:40.138Z,99875.56
2023-03-03T10:51:21.380Z,99881.34
2023-03-03T10:54:11.911Z,99888.09
2023-03-03T10:56:53.547Z,99889.75
2023-03-03T10:59:41.346Z,99885.41
2023-03-03T11:02:19.649Z,99891.31
2023-03-03T11:05:22.003Z,99891.31
2023-03-03T11:07:55.137Z,99889.59
2023-03-03T11:10:38.686Z,99892.88
2023-03-03T11:13:17.970Z,99879.34
2023-03-03T11:16:01.916Z,99892.97
2023-03-03T11:18:42.342Z,99886.22
2023-03-03T11:21:18.150Z,99889.59
2023-03-03T11:24:02.267Z,99888.72
2023-03-03T11:26:51.087Z,99899.72
2023-03-03T11:29:42.692Z,99882.72
2023-03-03T11:32:25.297Z,99877.63
2023-03-03T11:35:08.688Z,99876.75
2023-03-03T11:37:43.352Z,99876.66
2023-03-03T11:40:20.471Z,99874.03
2023-03-03T11:43:03.250Z,99868.97
2023-03-03T11:45:41.738Z,99873.09
2023-03-03T11:48:19.155Z,99878.16
2023-03-03T11:50:56.999Z,99868.84
2023-03-03T11:53:55.740Z,99873.84
2023-03-03T11:56:29.548Z,99867.91
2023-03-03T11:59:20.824Z,99854.38
2023-03-03T12:01:57.728Z,99865.44
2023-03-03T12:04:33.542Z,99856.13
2023-03-03T12:07:21.371Z,99851.03
2023-03-03T12:10:03.417Z,99850.19
2023-03-03T12:12:38.483Z,99840.00
2023-03-03T12:15:24.424Z,99834.91
2023-03-03T12:18:11.642Z,99833.28
2023-03-03T12:20:51.088Z,99830.69
2023-03-03T12:24:04.927Z,99832.31
2023-03-03T12:26:46.240Z,99828.94
2023-03-03T12:29:28.848Z,99833.16
2023-03-03T12:32:09.218Z,99833.00
2023-03-03T12:34:45.816Z,99833.81
2023-03-03T12:37:32.309Z,99830.38
2023-03-03T12:40:10.508Z,99824.31
2023-03-03T12:42:54.702Z,99825.13
2023-03-03T12:45:37.773Z,99817.50
2023-03-03T12:48:17.196Z,99819.94
2023-03-03T12:50:59.201Z,99813.94
2023-03-03T12:54:03.643Z,99808.84
2023-03-03T12:56:36.805Z,99802.88
2023-03-03T12:59:15.506Z,99801.91
2023-03-03T13:02:05.043Z,99799.28
2023-03-03T13:04:40.248Z,99799.22
2023-03-03T13:07:18.296Z,99795.69
2023-03-03T13:10:05.999Z,99790.53
2023-03-03T13:12:41.829Z,99794.72
2023-03-03T13:15:18.373Z,99792.09
2023-03-03T13:18:02.362Z,99789.47
2023-03-03T13:20:42.596Z,99792.78
2023-03-03T13:23:36.342Z,99790.97
2023-03-03T13:26:12.064Z,99790.00
2023-03-03T13:28:44.783Z,99793.41
2023-03-03T13:31:19.954Z,99783.94
2023-03-03T13:33:55.934Z,99795.78
2023-03-03T13:36:31.567Z,99789.88
2023-03-03T13:39:05.904Z,99795.72
2023-03-03T13:41:46.937Z,99784.63
2023-03-03T13:44:22.326Z,99790.53
2023-03-03T13:47:04.405Z,99779.47
2023-03-03T13:49:55.056Z,99781.94
2023-03-03T13:52:27.623Z,99774.28
2023-03-03T13:55:15.558Z,99774.28
2023-03-03T13:58:01.227Z,99771.66
2023-03-03T14:00:46.007Z,99762.34
2023-03-03T14:03:57.785Z,99764.03
2023-03-03T14:06:29.385Z,99758.94
2023-03-03T14:09:40.346Z,99758.06
2023-03-03T14:12:20.142Z,99752.06
2023-03-03T14:15:00.926Z,99743.53
2023-03-03T14:17:38.680Z,99738.38
2023-03-03T14:20:22.984Z,99745.06
2023-03-03T14:22:56.165Z,99745.91
2023-03-03T14:25:26.331Z,99746.72
2023-03-03T14:28:11.092Z,99744.09
2023-03-03T14:30:42.224Z,99736.47
2023-03-03T14:33:22.468Z,99739.84
2023-03-03T14:36:03.487Z,99740.66
2023-03-03T14:38:48.439Z,99732.22
2023-03-03T14:41:40.960Z,99726.28
2023-03-03T14:44:31.442Z,99739.84
2023-03-03T14:47:13.868Z,99723.72
2023-03-03T14:49:42.906Z,99731.31
2023-03-03T14:52:23.929Z,99736.41
2023-03-03T14:54:55.034Z,99734.69
2023-03-03T14:57:46.454Z,99729.50
2023-03-03T15:00:36.367Z,99734.69
2023-03-03T15:03:22.660Z,99738.13
2023-03-03T15:05:52.966Z,99733.03
2023-03-03T15:08:33.032Z,99725.38
2023-03-03T15:11:20.868Z,99735.56
2023-03-03T15:13:50.981Z,99733.03
2023-03-03T15:16:23.520Z,99733.88
2023-03-03T15:19:19.010Z,99728.81
2023-03-03T15:22:01.486Z,99728.81
2023-03-03T15:24:41.539Z,99730.56
2023-03-03T15:27:17.901Z,99737.38
2023-03-03T15:30:05.136Z,99742.47
2023-03-03T15:32:42.499Z,99739.97
2023-03-03T15:35:23.912Z,99737.53
2023-03-03T15:37:59.777Z,99738.44
2023-03-03T15:40:31.335Z,99742.78
2023-03-03T15:43:10.681Z,99741.13
2023-03-03T15:45:48.576Z,99737.84
2023-03-03T15:48:46.264Z,99744.72
2023-03-03T15:51:33.804Z,99745.63
2023-03-03T15:54:27.808Z,99744.88
2023-03-03T15:57:00.196Z,99743.22
2023-03-03T16:00:33.576Z,99744.19
2023-03-03T16:03:13.989Z,99742.63
2023-03-03T16:05:53.753Z,99746.09
2023-03-03T16:08:31.976Z,99741.09
2023-03-03T16:11:10.034Z,99752.22
2023-03-03T16:13:59.417Z,99753.03
2023-03-03T16:16:40.728Z,99748.13
2023-03-03T16:19:32.247Z,99752.34
2023-03-03T16:22:42.083Z,99755.94
2023-03-03T16:25:41.681Z,99761.19
2023-03-03T16:28:18.517Z,99763.81
2023-03-03T16:30:55.220Z,99762.09
2023-03-03T16:33:33.786Z,99771.53
2023-03-03T16:36:14.755Z,99776.69
2023-03-03T16:38:47.179Z,99775.13
2023-03-03T16:41:25.796Z,99780.22
2023-03-03T16:44:06.374Z,99788.78
2023-03-03T16:46:40.234Z,99793.88
2023-03-03T16:49:19.773Z,99797.38
2023-03-03T16:51:54.728Z,99794.16
2023-03-03T16:54:36.317Z,99799.31
2023-03-03T16:57:17.909Z,99802.75
2023-03-03T17:00:05.404Z,99807.81
2023-03-03T17:03:00.345Z,99810.53
2023-03-03T17:05:45.868Z,99813.16
2023-03-03T17:08:56.499Z,99816.56
2023-03-03T17:11:36.472Z,99820.94
2023-03-03T17:14:25.854Z,99820.09
2023-03-03T17:17:01.179Z,99818.47
2023-03-03T17:19:50.769Z,99830.34
2023-03-03T17:22:28.358Z,99826.97
2023-03-03T17:25:10.806Z,99826.22
2023-03-03T17:28:07.055Z,99833.84
2023-03-03T17:30:43.866Z,99839.84
2023-03-03T17:33:53.065Z,99847.59
2023-03-03T17:36:35.378Z,99849.41
2023-03-03T17:39:37.119Z,99853.72
2023-03-03T17:42:17.270Z,99851.25
2023-03-03T17:45:01.827Z,99860.69
2023-03-03T17:47:47.506Z,99867.63
2023-03-03T17:50:53.369Z,99867.00
2023-03-03T17:53:45.530Z,99870.50
2023-03-03T17:56:20.386Z,99872.38
2023-03-03T17:59:11.142Z,99878.41
2023-03-03T18:02:15.231Z,99876.91
2023-03-03T18:05:14.158Z,99882.94
2023-03-03T18:07:54.168Z,99888.97
2023-03-03T18:10:53.247Z,99884.03
2023-03-03T18:13:50.486Z,99889.19
2023-03-03T18:16:33.845Z,99898.59
2023-03-03T18:19:26.383Z,99905.38
2023-03-03T18:22:01.149Z,99908.00
2023-03-03T18:24:38.782Z,99908.00
2023-03-03T18:27:33.208Z,99910.53
2023-03-03T18:30:35.306Z,99906.34
2023-03-03T18:33:11.228Z,99912.31
2023-03-03T18:35:43.434Z,99916.59
2023-03-03T18:38:34.934Z,99914.06
2023-03-03T18:41:05.207Z,99914.16
2023-03-03T18:44:00.368Z,99917.59
2023-03-03T18:46:49.683Z,99922.72
2023-03-03T18:49:20.638Z,99921.09
2023-03-03T18:52:18.092Z,99921.97
2023-03-03T18:55:26.217Z,99922.13
2023-03-03T18:58:30.196Z,99926.44
2023-03-03T19:01:04.115Z,99922.22
2023-03-03T19:03:37.507Z,99934.94
2023-03-03T19:06:11.058Z,99935.00
2023-03-03T19:08:56.339Z,99930.00
2023-03-03T19:11:40.939Z,99937.69
2023-03-03T19:14:41.354Z,99936.91
2023-03-03T19:17:49.959Z,99940.44
2023-03-03T19:20:19.334Z,99940.53
2023-03-03T19:22:51.533Z,99935.59
2023-03-03T19:25:26.001Z,99946.69
2023-03-03T19:28:13.059Z,99948.53
2023-03-03T19:30:48.945Z,99949.50
2023-03-03T19:33:34.941Z,99950.38
2023-03-03T19:36:23.243Z,99948.72
2023-03-03T19:39:05.523Z,99960.63
2023-03-03T19:41:52.516Z,99959.84
2023-03-03T19:44:46.369Z,99958.16
2023-03-03T19:47:27.793Z,99957.38
2023-03-03T19:50:14.470Z,99954.88
2023-03-03T19:52:49.418Z,99956.66
2023-03-03T19:55:30.704Z,99959.19
2023-03-03T19:58:23.094Z,99963.53
2023-03-03T20:00:59.993Z,99963.53
2023-03-03T20:04:07.311Z,99961.88
2023-03-03T20:06:51.288Z,99963.66
2023-03-03T20:09:32.481Z,99964.53
2023-03-03T20:12:23.930Z,99963.75
2023-03-03T20:15:01.047Z,99973.09
2023-03-03T20:17:54.479Z,99968.22
2023-03-03T20:20:50.972Z,99967.56
2023-03-03T20:23:25.036Z,99969.38
2023-03-03T20:26:01.793Z,99983.09
2023-03-03T20:28:58.082Z,99984.09
2023-03-03T20:31:35.667Z,99984.22
2023-03-03T20:34:15.446Z,99989.38
2023-03-03T20:36:57.710Z,99989.47
2023-03-03T20:39:51.659Z,99990.44
2023-03-03T20:42:33.952Z,99990.56
2023-03-03T20:45:26.010Z,99991.44
2023-03-03T20:48:12.056Z,99995.69
2023-03-03T20:50:55.172Z,99990.69
2023-03-03T20:53:29.794Z,99994.91
2023-03-03T20:56:05.908Z,99999.16
2023-03-03T20:58:50.796Z,99990.09
2023-03-03T21:01:33.144Z,99992.75
2023-03-03T21:04:22.340Z,99995.44
2023-03-03T21:06:51.455Z,99991.25
2023-03-03T21:09:31.805Z,99988.81
2023-03-03T21:12:03.280Z,99993.22
2023-03-03T21:14:36.074Z,99986.53
2023-03-03T21:17:27.739Z,99994.28
2023-03-03T21:19:56.344Z,99991.94
2023-03-03T21:22:25.640Z,99990.41
2023-03-03T21:24:56.485Z,100002.34
2023-03-03T21:27:30.442Z,99989.72
2023-03-03T21:30:12.462Z,99998.28
2023-03-03T21:32:44.966Z,99995.00
2023-03-03T21:35:15.912Z,99995.00
2023-03-03T21:37:49.167Z,99995.91
2023-03-03T21:40:23.387Z,100003.56
2023-03-03T21:42:53.465Z,100006.16
2023-03-03T21:45:23.737Z,99997.78
2023-03-03T21:47:54.953Z,100001.19
2023-03-03T21:50:25.935Z,100008.06
2023-03-03T21:52:56.218Z,100001.38
2023-03-03T21:55:26.679Z,100001.44
2023-03-03T21:57:55.509Z,100001.47
2023-03-03T22:00:24.611Z,100009.13
2023-03-03T22:02:55.391Z,100003.28
2023-03-03T22:05:24.207Z,100007.56
2023-03-03T22:07:52.803Z,100001.81
2023-03-03T22:10:21.514Z,100011.94
2023-03-03T22:12:50.121Z,100003.63
2023-03-03T22:15:18.927Z,100007.06
2023-03-03T22:17:47.530Z,100008.81
2023-03-03T22:20:18.139Z,100009.66
2023-03-03T22:22:47.564Z,100010.50
2023-03-03T22:25:16.420Z,100007.94
2023-03-03T22:27:44.967Z,100004.66
2023-03-03T22:30:14.972Z,100013.94
2023-03-03T22:32:43.627Z,100013.09
2023-03-03T22:35:12.274Z,100014.78
2023-03-03T22:37:42.296Z,100022.47
2023-03-03T22:40:13.055Z,100018.31
2023-03-03T22:42:41.728Z,100025.97
2023-03-03T22:45:11.715Z,100017.59
2023-03-03T22:47:40.435Z,100028.72
2023-03-03T22:50:11.496Z,100029.63
2023-03-03T22:52:41.650Z,100024.72
2023-03-03T22:55:11.346Z,100027.31
2023-03-03T22:57:39.980Z,100031.53
2023-03-03T23:00:13.226Z,100031.66
2023-03-03T23:02:43.389Z,100030.03
2023-03-03T23:05:12.044Z,100031.75
2023-03-03T23:07:42.161Z,100025.91
2023-03-03T23:10:14.834Z,100029.31
2023-03-03T23:12:43.625Z,100035.28
2023-03-03T23:15:14.271Z,100029.41
2023-03-03T23:17:43.884Z,100030.28
2023-03-03T23:20:15.580Z,100036.25
2023-03-03T23:22:45.641Z,100032.94
2023-03-03T23:25:15.294Z,100032.16
2023-03-03T23:27:46.064Z,100036.44
2023-03-03T23:30:17.365Z,100034.84
2023-03-03T23:32:46.668Z,100032.34
2023-03-03T23:35:15.672Z,100039.16
2023-03-03T23:37:46.113Z,100032.41
2023-03-03T23:40:16.391Z,100030.81
2023-03-03T23:42:45.438Z,100029.13
2023-03-03T23:45:14.454Z,100036.78
2023-03-03T23:47:43.564Z,100030.91
2023-03-03T23:50:14.137Z,100043.66
2023-03-03T23:52:42.801Z,100032.69
2023-03-03T23:55:12.978Z,100036.09
2023-03-03T23:57:41.776Z,100033.56
